Time;durP1;ratioP1;P1;durP2;ratioP2;P2;SDS_P1;SDS_P2;PMS_P1;PMS_P2;Temp;Humidity;BMP_temperature;BMP_pressure;BME280_temperature;BME280_humidity;BME280_pressure;Samples;Min_cycle;Max_cycle;Signal;HPM_P1;HPM_P2
2022/12/12 00:01:25;;;;;;;4.43;3.00;;;;;;;;;;5117886;27;20035;-80
2022/12/12 00:03:51;;;;;;;6.80;4.43;;;;;;;;;;5136377;27;20023;-80
2022/12/12 00:06:18;;;;;;;5.88;3.95;;;;;;;;;;5136618;27;20084;-78
2022/12/12 00:08:44;;;;;;;8.82;4.63;;;;;;;;;;5136479;27;20029;-78
2022/12/12 00:11:10;;;;;;;7.80;3.85;;;;;;;;;;5136281;27;20058;-78
2022/12/12 00:13:36;;;;;;;7.65;3.97;;;;;;;;;;5136408;27;20442;-79
2022/12/12 00:16:04;;;;;;;6.30;4.05;;;;;;;;;;5136059;27;20489;-79
2022/12/12 00:18:30;;;;;;;7.05;3.85;;;;;;;;;;5138745;27;20744;-79
2022/12/12 00:20:57;;;;;;;7.60;4.95;;;;;;;;;;5156975;27;20019;-79
2022/12/12 00:23:24;;;;;;;9.77;5.15;;;;;;;;;;5145128;27;20045;-78
2022/12/12 00:25:54;;;;;;;6.07;4.07;;;;;;;;;;5157002;27;20042;-80
2022/12/12 00:28:20;;;;;;;5.78;3.90;;;;;;;;;;5138410;27;20027;-80
2022/12/12 00:30:46;;;;;;;5.88;4.13;;;;;;;;;;5153235;27;20366;-79
2022/12/12 00:33:12;;;;;;;7.07;5.15;;;;;;;;;;5157032;27;20050;-79
2022/12/12 00:35:38;;;;;;;6.65;4.60;;;;;;;;;;5157079;27;20028;-79
2022/12/12 00:38:04;;;;;;;7.22;5.65;;;;;;;;;;5156554;27;20022;-79
2022/12/12 00:40:30;;;;;;;6.57;4.88;;;;;;;;;;5142640;27;20473;-79
2022/12/12 00:42:56;;;;;;;4.97;3.67;;;;;;;;;;5135803;27;20023;-80
2022/12/12 00:45:22;;;;;;;4.75;3.35;;;;;;;;;;5125866;27;20315;-80
2022/12/12 00:47:48;;;;;;;5.45;4.40;;;;;;;;;;5156496;27;20026;-80
2022/12/12 00:50:15;;;;;;;10.18;6.68;;;;;;;;;;5156345;27;20023;-80
2022/12/12 00:52:41;;;;;;;9.85;5.55;;;;;;;;;;5156527;27;20042;-79
2022/12/12 00:55:07;;;;;;;7.47;5.15;;;;;;;;;;5156296;27;20477;-79
2022/12/12 00:57:33;;;;;;;7.95;4.07;;;;;;;;;;5156150;27;20037;-78
2022/12/12 00:59:59;;;;;;;5.65;4.00;;;;;;;;;;5156336;27;20023;-79
2022/12/12 01:02:25;;;;;;;5.78;4.03;;;;;;;;;;5156384;27;20027;-80
2022/12/12 01:04:51;;;;;;;5.38;3.58;;;;;;;;;;5156266;27;20491;-79
2022/12/12 01:07:17;;;;;;;5.97;3.65;;;;;;;;;;5155967;27;20019;-79
2022/12/12 01:09:44;;;;;;;6.78;4.85;;;;;;;;;;5156430;27;20026;-79
2022/12/12 01:12:10;;;;;;;6.03;4.30;;;;;;;;;;5155993;27;20147;-79
2022/12/12 01:14:36;;;;;;;8.38;6.15;;;;;;;;;;5156215;27;20039;-80
2022/12/12 01:17:02;;;;;;;5.60;4.20;;;;;;;;;;5156142;27;20034;-79
2022/12/12 01:19:28;;;;;;;6.55;4.50;;;;;;;;;;5155830;27;20389;-79
2022/12/12 01:21:54;;;;;;;10.57;5.78;;;;;;;;;;5155997;27;20023;-79
2022/12/12 01:24:20;;;;;;;11.38;7.50;;;;;;;;;;5155714;27;20069;-78
2022/12/12 01:26:46;;;;;;;17.52;9.50;;;;;;;;;;5155876;27;20033;-79
2022/12/12 01:29:12;;;;;;;8.77;6.03;;;;;;;;;;5155783;27;20469;-79
2022/12/12 01:31:39;;;;;;;6.53;4.15;;;;;;;;;;5155971;27;20027;-78
2022/12/12 01:34:05;;;;;;;6.97;3.90;;;;;;;;;;5155860;27;20098;-79
2022/12/12 01:36:31;;;;;;;10.07;6.60;;;;;;;;;;5155460;27;20033;-80
2022/12/12 01:38:59;;;;;;;3.20;2.17;;;;;;;;;;5155654;27;20497;-79
2022/12/12 01:41:26;;;;;;;3.63;2.78;;;;;;;;;;5155402;27;20037;-79
2022/12/12 01:43:52;;;;;;;4.65;3.45;;;;;;;;;;5155719;27;20064;-79
2022/12/12 01:46:21;;;;;;;4.80;3.47;;;;;;;;;;5155267;27;20105;-78
2022/12/12 01:49:05;;;;;;;3.33;2.20;;;;;;;;;;5152790;27;20023;-79
2022/12/12 01:51:32;;;;;;;4.28;2.58;;;;;;;;;;5143648;27;20027;-79
2022/12/12 01:54:07;;;;;;;5.45;3.40;;;;;;;;;;5134391;27;20041;-80
2022/12/12 01:56:33;;;;;;;2.95;2.13;;;;;;;;;;5134512;27;20099;-78
2022/12/12 01:59:00;;;;;;;3.42;2.75;;;;;;;;;;5134229;27;20065;-79
2022/12/12 02:01:26;;;;;;;2.50;2.10;;;;;;;;;;5134356;27;20477;-78
2022/12/12 02:03:52;;;;;;;4.75;2.90;;;;;;;;;;5134282;27;20032;-79
2022/12/12 02:06:22;;;;;;;4.32;3.20;;;;;;;;;;5134251;27;20492;-79
2022/12/12 02:08:49;;;;;;;5.05;3.03;;;;;;;;;;5133646;27;20027;-78
2022/12/12 02:11:15;;;;;;;3.17;2.55;;;;;;;;;;5134202;27;20035;-79
2022/12/12 02:13:41;;;;;;;4.45;2.80;;;;;;;;;;5134227;27;20031;-79
2022/12/12 02:16:07;;;;;;;5.15;3.40;;;;;;;;;;5133949;27;20051;-78
2022/12/12 02:18:39;;;;;;;5.63;3.75;;;;;;;;;;5134036;27;20050;-78
2022/12/12 02:21:19;;;;;;;5.60;3.70;;;;;;;;;;5133936;27;20031;-79
2022/12/12 02:24:03;;;;;;;5.07;3.42;;;;;;;;;;5133886;27;20554;-79
2022/12/12 02:26:48;;;;;;;4.05;2.60;;;;;;;;;;5133672;27;20023;-80
2022/12/12 02:29:32;;;;;;;3.33;2.88;;;;;;;;;;5133841;27;20019;-80
2022/12/12 02:32:13;;;;;;;3.58;2.75;;;;;;;;;;5133832;27;20030;-79
2022/12/12 02:34:40;;;;;;;3.63;2.70;;;;;;;;;;5140938;27;20122;-78
2022/12/12 02:37:17;;;;;;;3.58;2.85;;;;;;;;;;5149849;27;20064;-79
2022/12/12 02:39:43;;;;;;;3.95;3.20;;;;;;;;;;5141866;27;20027;-80
2022/12/12 02:42:13;;;;;;;2.85;2.58;;;;;;;;;;5143604;27;20070;-79
2022/12/12 02:44:41;;;;;;;6.30;4.10;;;;;;;;;;5145049;27;20549;-78
2022/12/12 02:47:10;;;;;;;18.27;9.93;;;;;;;;;;5143506;27;20019;-78
2022/12/12 02:49:55;;;;;;;9.80;6.40;;;;;;;;;;5146068;27;20504;-78
2022/12/12 02:52:21;;;;;;;;;;;;;;;;;;5151884;27;20026;-78
2022/12/12 02:54:50;;;;;;;5.65;3.42;;;;;;;;;;5151493;27;19967;-79
2022/12/12 02:57:17;;;;;;;6.70;3.63;;;;;;;;;;5136095;27;20370;-79
2022/12/12 02:59:45;;;;;;;6.47;4.35;;;;;;;;;;5141503;27;20034;-79
2022/12/12 03:02:17;;;;;;;4.78;3.35;;;;;;;;;;5141641;27;20023;-79
2022/12/12 03:07:46;;;;;;;5.35;3.75;;;;;;;;;;5141750;27;20030;-79
2022/12/12 03:10:35;;;;;;;5.43;3.47;;;;;;;;;;5147933;27;20027;-78
2022/12/12 03:13:07;;;;;;;8.20;5.70;;;;;;;;;;5127042;27;20027;-79
2022/12/12 03:15:36;;;;;;;6.47;4.40;;;;;;;;;;5141208;27;20058;-79
2022/12/12 03:18:02;;;;;;;4.68;3.92;;;;;;;;;;5148522;27;20039;-78
2022/12/12 03:20:33;;;;;;;6.70;4.30;;;;;;;;;;5134291;27;20431;-79
2022/12/12 03:23:12;;;;;;;5.93;4.25;;;;;;;;;;5145879;27;20062;-78
2022/12/12 03:25:44;;;;;;;5.93;4.30;;;;;;;;;;5153316;27;20062;-79
2022/12/12 03:28:16;;;;;;;8.75;5.95;;;;;;;;;;5141383;27;20022;-79
2022/12/12 03:30:43;;;;;;;23.45;12.07;;;;;;;;;;5148679;27;20516;-79
2022/12/12 03:33:14;;;;;;;19.85;11.48;;;;;;;;;;5148153;27;20019;-79
2022/12/12 03:35:48;;;;;;;12.50;7.05;;;;;;;;;;5149705;27;20027;-79
2022/12/12 03:38:20;;;;;;;11.05;7.90;;;;;;;;;;5146630;27;20023;-79
2022/12/12 03:40:49;;;;;;;12.23;9.05;;;;;;;;;;5152449;27;20046;-79
2022/12/12 03:43:17;;;;;;;22.80;13.07;;;;;;;;;;5147865;27;20051;-79
2022/12/12 03:45:56;;;;;;;12.40;8.30;;;;;;;;;;5148385;27;20143;-79
2022/12/12 03:48:28;;;;;;;11.75;7.43;;;;;;;;;;5140212;27;20389;-79
2022/12/12 03:51:04;;;;;;;9.80;6.32;;;;;;;;;;5148273;27;20122;-78
2022/12/12 03:53:31;;;;;;;9.88;6.75;;;;;;;;;;5128952;27;20101;-79
2022/12/12 03:56:16;;;;;;;9.80;6.90;;;;;;;;;;5145211;27;20023;-79
2022/12/12 03:58:45;;;;;;;7.90;4.97;;;;;;;;;;5138173;27;20106;-79
2022/12/12 04:01:12;;;;;;;8.45;6.03;;;;;;;;;;5152454;27;20051;-79
2022/12/12 04:03:57;;;;;;;7.20;5.65;;;;;;;;;;5147354;27;20030;-79
2022/12/12 04:06:41;;;;;;;5.63;3.90;;;;;;;;;;5139587;27;20066;-78
2022/12/12 04:15:04;;;;;;;6.60;3.85;;;;;;;;;;5138154;27;20070;-79
2022/12/12 04:17:30;;;;;;;;;;;;;;;;;;5148371;27;20035;-79
2022/12/12 04:28:40;;;;;;;11.73;7.78;;;;;;;;;;5136580;27;20034;-78
2022/12/12 04:31:06;;;;;;;11.07;8.07;;;;;;;;;;5136209;27;20023;-78
2022/12/12 04:33:39;;;;;;;9.23;6.15;;;;;;;;;;5135300;27;20023;-78
2022/12/12 04:36:08;;;;;;;5.72;4.13;;;;;;;;;;5136043;27;20031;-79
2022/12/12 04:38:37;;;;;;;5.40;3.80;;;;;;;;;;5137307;27;20023;-79
2022/12/12 04:41:06;;;;;;;4.32;3.85;;;;;;;;;;5139115;27;20023;-77
2022/12/12 04:43:33;;;;;;;5.75;3.40;;;;;;;;;;5156978;27;20038;-78
2022/12/12 04:46:20;;;;;;;4.88;2.50;;;;;;;;;;5155931;27;20442;-78
2022/12/12 04:48:51;;;;;;;5.22;3.03;;;;;;;;;;5156536;27;20499;-78
2022/12/12 04:51:20;;;;;;;4.18;3.55;;;;;;;;;;5156535;27;20029;-79
2022/12/12 04:53:52;;;;;;;4.13;3.47;;;;;;;;;;5156215;27;20033;-79
2022/12/12 04:56:20;;;;;;;3.80;2.08;;;;;;;;;;5156059;27;20480;-80
2022/12/12 04:58:47;;;;;;;4.30;2.30;;;;;;;;;;5156327;27;20083;-79
2022/12/12 05:01:21;;;;;;;6.57;4.50;;;;;;;;;;5156211;27;20473;-78
2022/12/12 05:03:47;;;;;;;;;;;;;;;;;;5156533;27;20054;-78
2022/12/12 05:06:15;;;;;;;9.98;6.95;;;;;;;;;;5155833;27;19946;-79
2022/12/12 05:08:43;;;;;;;4.78;2.17;;;;;;;;;;5137279;27;20027;-79
2022/12/12 05:11:09;;;;;;;5.95;2.47;;;;;;;;;;5152827;27;20026;-78
2022/12/12 05:13:36;;;;;;;3.17;2.35;;;;;;;;;;5155570;27;20031;-79
2022/12/12 05:16:05;;;;;;;25.58;18.73;;;;;;;;;;5155763;27;20050;-78
2022/12/12 05:18:31;;;;;;;7.47;4.95;;;;;;;;;;5155682;27;20029;-79
2022/12/12 05:20:57;;;;;;;9.00;7.03;;;;;;;;;;5155831;27;20051;-79
2022/12/12 05:23:23;;;;;;;47.20;29.70;;;;;;;;;;5153542;27;20110;-78
2022/12/12 05:25:49;;;;;;;126.38;84.00;;;;;;;;;;5155699;27;20041;-78
2022/12/12 05:28:15;;;;;;;50.15;32.92;;;;;;;;;;5155199;27;20079;-78
2022/12/12 05:30:41;;;;;;;36.75;22.23;;;;;;;;;;5155642;27;20022;-77
2022/12/12 05:33:07;;;;;;;10.55;6.63;;;;;;;;;;5155541;27;20065;-78
2022/12/12 05:35:34;;;;;;;9.30;6.35;;;;;;;;;;5155258;27;20023;-78
2022/12/12 05:38:04;;;;;;;9.25;5.97;;;;;;;;;;5155509;27;20050;-78
2022/12/12 05:40:30;;;;;;;11.70;6.75;;;;;;;;;;5136776;27;20054;-77
2022/12/12 05:42:56;;;;;;;23.90;15.18;;;;;;;;;;5119233;27;20497;-78
2022/12/12 05:45:22;;;;;;;18.73;13.02;;;;;;;;;;5133400;27;20031;-78
2022/12/12 05:47:48;;;;;;;13.35;10.93;;;;;;;;;;5134485;27;20034;-78
2022/12/12 05:50:14;;;;;;;16.95;11.95;;;;;;;;;;5133883;27;20027;-79
2022/12/12 05:52:40;;;;;;;34.10;23.95;;;;;;;;;;5134016;27;20107;-79
2022/12/12 05:55:06;;;;;;;26.00;17.20;;;;;;;;;;5135668;27;20424;-79
2022/12/12 05:57:33;;;;;;;27.25;18.80;;;;;;;;;;5154705;27;20034;-78
2022/12/12 05:59:59;;;;;;;41.45;27.88;;;;;;;;;;5154599;27;20084;-79
2022/12/12 06:02:25;;;;;;;69.25;48.28;;;;;;;;;;5153990;27;20370;-78
2022/12/12 06:04:51;;;;;;;37.33;27.40;;;;;;;;;;5154920;27;20114;-79
2022/12/12 06:07:17;;;;;;;44.85;27.83;;;;;;;;;;5155232;27;20076;-78
2022/12/12 06:09:43;;;;;;;40.58;23.58;;;;;;;;;;5145259;27;20030;-78
2022/12/12 06:12:09;;;;;;;45.80;28.55;;;;;;;;;;5133921;27;20054;-77
2022/12/12 06:14:35;;;;;;;40.03;24.65;;;;;;;;;;5133530;27;20145;-78
2022/12/12 06:17:02;;;;;;;42.80;27.38;;;;;;;;;;5134045;27;20032;-78
2022/12/12 06:19:30;;;;;;;37.85;25.15;;;;;;;;;;5132696;27;20389;-78
2022/12/12 06:21:56;;;;;;;46.20;27.90;;;;;;;;;;5116875;27;20027;-78
2022/12/12 06:24:23;;;;;;;79.80;42.83;;;;;;;;;;5107543;27;20354;-77
2022/12/12 06:26:49;;;;;;;115.75;59.08;;;;;;;;;;5107453;27;20476;-77
2022/12/12 06:29:15;;;;;;;68.55;43.05;;;;;;;;;;5129469;27;20019;-76
2022/12/12 06:31:41;;;;;;;56.65;37.75;;;;;;;;;;5112691;27;20062;-76
2022/12/12 06:34:11;;;;;;;40.95;29.50;;;;;;;;;;5109623;27;20488;-78
2022/12/12 06:36:40;;;;;;;36.67;26.83;;;;;;;;;;5111530;27;20172;-77
2022/12/12 06:39:06;;;;;;;35.63;26.40;;;;;;;;;;5127107;27;20499;-78
2022/12/12 06:41:32;;;;;;;40.05;27.83;;;;;;;;;;5110086;27;20037;-80
2022/12/12 06:43:59;;;;;;;60.33;36.63;;;;;;;;;;5121140;27;20035;-80
2022/12/12 06:46:26;;;;;;;76.60;45.60;;;;;;;;;;5122467;27;20027;-80
2022/12/12 06:48:52;;;;;;;48.33;32.95;;;;;;;;;;5104548;27;20462;-79
2022/12/12 06:51:25;;;;;;;79.07;45.33;;;;;;;;;;5133039;27;20035;-79
2022/12/12 06:53:52;;;;;;;79.13;44.42;;;;;;;;;;5132635;27;20118;-81
2022/12/12 06:56:20;;;;;;;22.88;17.25;;;;;;;;;;5114817;27;20019;-80
2022/12/12 06:58:46;;;;;;;33.60;23.08;;;;;;;;;;5108435;28;20050;-82
2022/12/12 07:01:13;;;;;;;55.92;36.67;;;;;;;;;;5099583;28;20032;-80
2022/12/12 07:03:39;;;;;;;40.72;28.85;;;;;;;;;;5124376;27;20027;-79
2022/12/12 07:06:06;;;;;;;59.38;41.03;;;;;;;;;;5116339;27;20047;-82
2022/12/12 07:08:33;;;;;;;34.35;26.15;;;;;;;;;;5111408;27;20043;-80
2022/12/12 07:11:18;;;;;;;30.17;22.67;;;;;;;;;;5119766;27;20027;-81
2022/12/12 07:13:51;;;;;;;21.23;16.58;;;;;;;;;;5115913;28;20107;-81
2022/12/12 07:16:25;;;;;;;22.98;15.60;;;;;;;;;;5114614;28;20310;-83
2022/12/12 07:18:53;;;;;;;27.30;15.32;;;;;;;;;;5124715;28;20084;-84
2022/12/12 07:21:20;;;;;;;21.42;14.25;;;;;;;;;;5096466;28;20402;-82
2022/12/12 07:23:46;;;;;;;21.60;11.57;;;;;;;;;;5126797;28;20100;-84
2022/12/12 07:26:15;;;;;;;16.88;13.70;;;;;;;;;;5132926;28;20031;-81
2022/12/12 07:28:41;;;;;;;17.60;13.98;;;;;;;;;;5131385;28;20027;-84
2022/12/12 07:31:09;;;;;;;28.42;21.40;;;;;;;;;;5094685;28;20146;-86
2022/12/12 07:33:36;;;;;;;51.55;36.28;;;;;;;;;;5094910;28;20031;-85
2022/12/12 07:36:02;;;;;;;23.10;17.15;;;;;;;;;;5112276;28;20076;-82
2022/12/12 07:38:28;;;;;;;17.42;13.73;;;;;;;;;;5094055;28;20031;-83
2022/12/12 07:40:57;;;;;;;19.65;16.67;;;;;;;;;;5116998;27;20158;-85
2022/12/12 07:43:24;;;;;;;18.95;12.57;;;;;;;;;;5137083;27;20401;-84
2022/12/12 07:45:53;;;;;;;20.15;13.82;;;;;;;;;;5125588;28;20035;-83
2022/12/12 07:48:19;;;;;;;20.52;13.70;;;;;;;;;;5127668;28;20024;-85
2022/12/12 07:50:45;;;;;;;28.85;19.63;;;;;;;;;;5111917;28;20955;-84
2022/12/12 07:53:12;;;;;;;18.95;14.38;;;;;;;;;;5111607;28;20035;-82
2022/12/12 07:55:39;;;;;;;22.60;16.08;;;;;;;;;;5129420;28;20023;-83
2022/12/12 07:58:05;;;;;;;17.67;12.55;;;;;;;;;;5127816;28;20877;-82
2022/12/12 08:00:31;;;;;;;18.42;12.98;;;;;;;;;;5125837;27;20055;-84
2022/12/12 08:02:57;;;;;;;20.38;16.38;;;;;;;;;;5127420;28;20024;-83
2022/12/12 08:05:23;;;;;;;20.63;14.95;;;;;;;;;;5125200;28;20470;-78
2022/12/12 08:07:49;;;;;;;15.80;11.73;;;;;;;;;;5118942;27;20059;-81
2022/12/12 08:10:15;;;;;;;21.63;15.48;;;;;;;;;;5125417;27;20080;-82
2022/12/12 08:12:41;;;;;;;106.55;38.80;;;;;;;;;;5106752;27;20137;-82
2022/12/12 08:15:08;;;;;;;267.27;80.55;;;;;;;;;;5132721;27;20138;-84
2022/12/12 08:17:34;;;;;;;152.30;45.30;;;;;;;;;;5126725;27;20053;-79
2022/12/12 08:20:00;;;;;;;100.38;37.58;;;;;;;;;;5133099;27;20189;-82
2022/12/12 08:22:26;;;;;;;149.82;61.03;;;;;;;;;;5136679;27;20035;-80
2022/12/12 08:24:52;;;;;;;215.73;78.15;;;;;;;;;;5126291;27;20505;-82
2022/12/12 08:27:18;;;;;;;73.75;36.03;;;;;;;;;;5136065;27;20027;-81
2022/12/12 08:29:44;;;;;;;26.13;18.15;;;;;;;;;;5108275;27;20031;-81
2022/12/12 08:32:10;;;;;;;23.38;15.13;;;;;;;;;;5126311;27;20019;-80
2022/12/12 08:34:37;;;;;;;38.03;25.17;;;;;;;;;;5133707;27;20397;-80
2022/12/12 08:37:03;;;;;;;48.00;22.27;;;;;;;;;;5113113;27;20048;-79
2022/12/12 08:39:29;;;;;;;29.58;15.25;;;;;;;;;;5124900;27;20019;-80
2022/12/12 08:41:55;;;;;;;29.55;17.75;;;;;;;;;;5118981;27;20031;-81
2022/12/12 08:44:22;;;;;;;33.35;14.48;;;;;;;;;;5135287;27;20023;-80
2022/12/12 08:46:48;;;;;;;19.70;12.18;;;;;;;;;;5133584;27;20023;-80
2022/12/12 08:49:15;;;;;;;24.58;15.85;;;;;;;;;;5130522;27;20500;-80
2022/12/12 08:51:41;;;;;;;13.23;9.65;;;;;;;;;;5131422;27;20039;-79
2022/12/12 08:54:07;;;;;;;21.02;16.42;;;;;;;;;;5114127;28;20046;-79
2022/12/12 08:56:33;;;;;;;17.35;11.30;;;;;;;;;;5116140;28;20411;-81
2022/12/12 08:58:59;;;;;;;127.05;40.88;;;;;;;;;;5115893;28;20027;-84
2022/12/12 09:01:26;;;;;;;93.40;33.15;;;;;;;;;;5117460;27;20103;-80
2022/12/12 09:03:53;;;;;;;22.60;14.43;;;;;;;;;;5134324;27;20355;-81
2022/12/12 09:06:19;;;;;;;25.05;17.25;;;;;;;;;;5134772;27;20032;-80
2022/12/12 09:08:47;;;;;;;27.13;15.55;;;;;;;;;;5133278;27;20058;-81
2022/12/12 09:11:13;;;;;;;15.52;9.38;;;;;;;;;;5116285;27;20481;-81
2022/12/12 09:13:40;;;;;;;24.00;16.77;;;;;;;;;;5133136;27;20023;-80
2022/12/12 09:16:07;;;;;;;21.67;12.18;;;;;;;;;;5134363;27;20062;-81
2022/12/12 09:18:33;;;;;;;121.05;65.78;;;;;;;;;;5130585;27;20106;-82
2022/12/12 09:21:00;;;;;;;85.38;32.92;;;;;;;;;;5129446;27;20114;-80
2022/12/12 09:23:27;;;;;;;95.78;55.72;;;;;;;;;;5133790;27;20497;-85
2022/12/12 09:25:53;;;;;;;57.15;25.00;;;;;;;;;;5109773;27;20031;-83
2022/12/12 09:28:20;;;;;;;58.22;28.05;;;;;;;;;;5108473;27;20164;-81
2022/12/12 09:30:56;;;;;;;47.65;20.35;;;;;;;;;;5104162;27;20067;-83
2022/12/12 09:33:26;;;;;;;24.52;11.65;;;;;;;;;;5103929;27;20034;-80
2022/12/12 09:35:59;;;;;;;19.23;9.88;;;;;;;;;;5115217;27;20024;-82
2022/12/12 09:38:26;;;;;;;13.82;8.68;;;;;;;;;;5114166;28;20042;-81
2022/12/12 09:40:54;;;;;;;16.17;8.50;;;;;;;;;;5114271;28;20332;-80
2022/12/12 09:43:51;;;;;;;9.90;4.82;;;;;;;;;;5117584;27;20547;-82
2022/12/12 09:46:26;;;;;;;7.78;4.93;;;;;;;;;;5112905;27;20130;-81
2022/12/12 09:48:56;;;;;;;8.00;5.57;;;;;;;;;;5146214;27;20023;-82
2022/12/12 09:51:22;;;;;;;7.18;3.58;;;;;;;;;;5134300;27;20473;-79
2022/12/12 09:53:50;;;;;;;6.47;3.83;;;;;;;;;;5119948;27;20552;-80
2022/12/12 09:56:35;;;;;;;7.82;4.40;;;;;;;;;;5115467;27;20027;-84
2022/12/12 09:59:11;;;;;;;10.40;7.57;;;;;;;;;;5112737;27;20024;-80
2022/12/12 10:01:56;;;;;;;20.48;13.35;;;;;;;;;;5133385;27;20115;-81
2022/12/12 10:04:25;;;;;;;21.30;14.35;;;;;;;;;;5124090;27;20122;-79
2022/12/12 10:07:00;;;;;;;5.53;3.40;;;;;;;;;;5122962;27;20085;-78
2022/12/12 10:09:45;;;;;;;8.02;4.03;;;;;;;;;;5120871;27;20058;-79
2022/12/12 10:12:12;;;;;;;4.07;2.78;;;;;;;;;;5118659;27;20477;-81
2022/12/12 10:14:53;;;;;;;8.18;4.53;;;;;;;;;;5116623;27;20047;-79
2022/12/12 10:17:22;;;;;;;30.25;22.63;;;;;;;;;;5130633;27;20065;-78
2022/12/12 10:19:53;;;;;;;11.02;8.07;;;;;;;;;;5103579;27;20096;-79
2022/12/12 10:22:31;;;;;;;9.35;6.68;;;;;;;;;;5133308;27;20031;-81
2022/12/12 10:25:03;;;;;;;9.75;4.63;;;;;;;;;;5130864;27;20371;-80
2022/12/12 10:27:29;;;;;;;7.30;3.95;;;;;;;;;;5116746;27;20092;-83
2022/12/12 10:30:14;;;;;;;10.07;4.55;;;;;;;;;;5127740;27;20018;-80
2022/12/12 10:32:43;;;;;;;7.07;3.75;;;;;;;;;;5109046;27;20080;-78
2022/12/12 10:35:28;;;;;;;6.53;2.80;;;;;;;;;;5132416;27;20488;-78
2022/12/12 10:37:54;;;;;;;;;;;;;;;;;;5134956;27;20042;-79
2022/12/12 10:40:26;;;;;;;105.35;83.25;;;;;;;;;;5132058;27;19907;-80
2022/12/12 10:43:11;;;;;;;134.30;109.40;;;;;;;;;;5113309;27;20109;-79
2022/12/12 10:45:37;;;;;;;22.75;16.58;;;;;;;;;;5130097;27;20409;-80
2022/12/12 10:48:04;;;;;;;21.17;16.10;;;;;;;;;;5132904;27;20023;-84
2022/12/12 10:50:33;;;;;;;20.25;12.75;;;;;;;;;;5106828;27;20430;-81
2022/12/12 10:53:01;;;;;;;11.30;8.20;;;;;;;;;;5123373;27;20054;-84
2022/12/12 10:55:39;;;;;;;9.40;4.65;;;;;;;;;;5114252;27;20032;-80
2022/12/12 10:58:05;;;;;;;6.65;4.53;;;;;;;;;;5122937;27;20057;-79
2022/12/12 11:00:36;;;;;;;10.32;4.80;;;;;;;;;;5125355;27;20063;-79
2022/12/12 11:03:21;;;;;;;10.23;5.40;;;;;;;;;;5131563;27;20413;-80
2022/12/12 11:05:48;;;;;;;24.65;16.70;;;;;;;;;;5124355;27;20035;-81
2022/12/12 11:08:28;;;;;;;13.57;8.75;;;;;;;;;;5130286;27;20031;-78
2022/12/12 11:11:02;;;;;;;7.82;4.65;;;;;;;;;;5129549;27;20030;-80
2022/12/12 11:13:30;;;;;;;7.88;4.68;;;;;;;;;;5107931;28;20354;-78
2022/12/12 11:16:09;;;;;;;13.20;7.07;;;;;;;;;;5130643;28;20051;-78
2022/12/12 11:18:35;;;;;;;9.52;5.78;;;;;;;;;;5126374;28;20055;-76
2022/12/12 11:21:05;;;;;;;7.70;4.30;;;;;;;;;;5130199;28;20031;-78
2022/12/12 11:23:32;;;;;;;8.60;4.50;;;;;;;;;;5132946;28;20410;-82
2022/12/12 11:26:17;;;;;;;10.30;5.60;;;;;;;;;;5131724;27;20039;-80
2022/12/12 11:28:44;;;;;;;10.23;6.95;;;;;;;;;;5123244;27;20023;-80
2022/12/12 11:31:13;;;;;;;22.60;12.43;;;;;;;;;;5130216;28;20022;-83
2022/12/12 11:33:47;;;;;;;9.18;6.95;;;;;;;;;;5125292;28;20018;-80
2022/12/12 11:36:15;;;;;;;29.05;12.27;;;;;;;;;;5130791;27;20157;-81
2022/12/12 11:38:45;;;;;;;35.40;15.95;;;;;;;;;;5130236;27;20059;-83
2022/12/12 11:41:11;;;;;;;17.63;9.27;;;;;;;;;;5120038;27;20469;-82
2022/12/12 11:43:52;;;;;;;20.55;10.15;;;;;;;;;;5128477;27;20035;-81
2022/12/12 11:46:20;;;;;;;17.48;9.95;;;;;;;;;;5123193;27;20047;-81
2022/12/12 11:49:04;;;;;;;13.52;7.68;;;;;;;;;;5115986;27;20035;-82
2022/12/12 11:51:35;;;;;;;18.70;11.40;;;;;;;;;;5122182;27;20056;-81
2022/12/12 11:54:02;;;;;;;12.45;7.97;;;;;;;;;;5136987;27;20466;-81
2022/12/12 11:56:37;;;;;;;15.45;10.30;;;;;;;;;;5133744;27;20023;-81
2022/12/12 11:59:03;;;;;;;;;;;;;;;;;;5125400;27;20038;-82
2022/12/12 12:01:40;;;;;;;13.27;6.38;;;;;;;;;;5120812;27;19907;-84
2022/12/12 12:04:06;;;;;;;13.13;6.40;;;;;;;;;;5135767;27;20038;-83
2022/12/12 12:06:32;;;;;;;12.02;7.07;;;;;;;;;;5133378;27;20081;-84
2022/12/12 12:09:17;;;;;;;17.00;8.10;;;;;;;;;;5127007;27;20023;-77
2022/12/12 12:12:00;;;;;;;19.05;8.18;;;;;;;;;;5118426;27;20382;-81
2022/12/12 12:14:45;;;;;;;24.10;9.80;;;;;;;;;;5112137;27;20106;-79
2022/12/12 12:17:11;;;;;;;;;;;;;;;;;;5129175;27;20042;-79
2022/12/12 12:19:45;;;;;;;12.55;6.32;;;;;;;;;;5110284;27;20286;-83
2022/12/12 12:22:20;;;;;;;16.92;10.00;;;;;;;;;;5129607;27;21134;-79
2022/12/12 12:25:08;;;;;;;25.38;15.57;;;;;;;;;;5130922;27;20043;-82
2022/12/12 12:27:53;;;;;;;16.55;9.85;;;;;;;;;;5110905;27;20031;-83
2022/12/12 12:30:20;;;;;;;;;;;;;;;;;;5133551;27;20031;-80
2022/12/12 12:32:46;;;;;;;13.68;10.48;;;;;;;;;;5115340;27;19918;-81
2022/12/12 12:35:31;;;;;;;18.38;9.95;;;;;;;;;;5132803;27;20113;-81
2022/12/12 12:37:56;;;;;;;;;;;;;;;;;;5113418;27;20660;-82
2022/12/12 12:40:32;;;;;;;44.47;26.23;;;;;;;;;;5129514;27;19911;-79
2022/12/12 12:43:10;;;;;;;49.95;21.15;;;;;;;;;;5122193;27;20035;-79
2022/12/12 12:45:56;;;;;;;24.23;14.85;;;;;;;;;;5127615;27;20414;-79
2022/12/12 12:48:31;;;;;;;19.67;12.75;;;;;;;;;;5134056;27;20023;-78
2022/12/12 12:51:03;;;;;;;24.02;14.82;;;;;;;;;;5130404;27;20233;-80
2022/12/12 12:53:29;;;;;;;31.00;17.63;;;;;;;;;;5130690;27;20030;-79
2022/12/12 12:55:58;;;;;;;26.80;17.00;;;;;;;;;;5114092;27;20195;-80
2022/12/12 13:01:48;;;;;;;29.10;18.52;;;;;;;;;;5131508;27;20070;-79
2022/12/12 13:04:20;;;;;;;30.90;19.83;;;;;;;;;;5130877;27;20027;-78
2022/12/12 13:06:49;;;;;;;19.77;15.63;;;;;;;;;;5133301;27;20047;-80
2022/12/12 13:09:22;;;;;;;23.83;14.55;;;;;;;;;;5131195;27;20031;-78
2022/12/12 13:11:50;;;;;;;213.57;76.60;;;;;;;;;;5121538;27;20028;-80
2022/12/12 13:14:28;;;;;;;163.48;69.13;;;;;;;;;;5123556;27;20047;-81
2022/12/12 13:16:54;;;;;;;199.60;94.88;;;;;;;;;;5124128;27;20035;-79
2022/12/12 13:19:34;;;;;;;188.18;84.95;;;;;;;;;;5127124;27;20016;-80
2022/12/12 13:22:19;;;;;;;53.58;37.05;;;;;;;;;;5134696;27;20039;-80
2022/12/12 13:24:55;;;;;;;42.63;27.92;;;;;;;;;;5122268;27;20394;-79
2022/12/12 13:27:27;;;;;;;32.60;22.10;;;;;;;;;;5121382;27;20377;-78
2022/12/12 13:30:04;;;;;;;25.85;19.20;;;;;;;;;;5128678;27;20092;-78
2022/12/12 13:32:49;;;;;;;29.17;19.45;;;;;;;;;;5123670;27;20119;-78
2022/12/12 13:35:23;;;;;;;32.95;22.17;;;;;;;;;;5120846;27;20036;-78
2022/12/12 13:37:51;;;;;;;26.10;19.30;;;;;;;;;;5112083;28;20421;-78
2022/12/12 13:40:28;;;;;;;37.55;17.17;;;;;;;;;;5123972;27;20404;-81
2022/12/12 13:42:56;;;;;;;25.88;16.52;;;;;;;;;;5120533;27;20031;-79
2022/12/12 13:45:41;;;;;;;302.42;98.35;;;;;;;;;;5125124;27;20046;-78
2022/12/12 13:48:10;;;;;;;80.53;38.03;;;;;;;;;;5104920;27;20495;-79
2022/12/12 13:50:36;;;;;;;34.15;20.27;;;;;;;;;;5127153;27;20023;-79
2022/12/12 13:53:21;;;;;;;46.58;34.35;;;;;;;;;;5133071;27;20030;-77
2022/12/12 13:55:48;;;;;;;62.03;39.10;;;;;;;;;;5114642;27;20051;-77
2022/12/12 13:58:19;;;;;;;71.18;39.92;;;;;;;;;;5122466;27;20023;-77
2022/12/12 14:00:45;;;;;;;58.22;34.58;;;;;;;;;;5124231;27;20062;-79
2022/12/12 14:03:11;;;;;;;69.93;41.70;;;;;;;;;;5128630;27;20114;-78
2022/12/12 14:05:41;;;;;;;58.97;40.53;;;;;;;;;;5125900;27;20389;-78
2022/12/12 14:08:10;;;;;;;32.63;23.30;;;;;;;;;;5128443;27;20031;-79
2022/12/12 14:10:49;;;;;;;88.50;36.63;;;;;;;;;;5133444;27;20627;-81
2022/12/12 14:13:18;;;;;;;235.98;119.43;;;;;;;;;;5132275;27;20542;-81
2022/12/12 14:15:45;;;;;;;108.13;51.67;;;;;;;;;;5131366;27;20047;-80
2022/12/12 14:18:19;;;;;;;32.30;22.08;;;;;;;;;;5126983;27;21466;-80
2022/12/12 14:20:53;;;;;;;27.20;19.90;;;;;;;;;;5114183;27;20019;-80
2022/12/12 14:23:30;;;;;;;35.92;24.30;;;;;;;;;;5126434;27;20359;-79
2022/12/12 14:26:00;;;;;;;41.92;25.90;;;;;;;;;;5115302;27;20034;-79
2022/12/12 14:28:44;;;;;;;44.22;29.20;;;;;;;;;;5129397;27;20043;-79
2022/12/12 14:31:14;;;;;;;52.45;36.60;;;;;;;;;;5131854;27;20027;-81
2022/12/12 14:33:46;;;;;;;55.38;37.83;;;;;;;;;;5132791;27;20031;-80
2022/12/12 14:36:15;;;;;;;50.95;36.60;;;;;;;;;;5131404;27;20027;-79
2022/12/12 14:38:41;;;;;;;59.85;41.83;;;;;;;;;;5131240;27;20139;-78
2022/12/12 14:41:16;;;;;;;77.22;51.03;;;;;;;;;;5133019;27;20072;-78
2022/12/12 14:43:44;;;;;;;54.33;36.30;;;;;;;;;;5132965;27;20066;-78
2022/12/12 14:46:17;;;;;;;39.38;24.23;;;;;;;;;;5131944;27;20045;-78
2022/12/12 14:48:43;;;;;;;27.23;18.58;;;;;;;;;;5132339;27;20080;-78
2022/12/12 14:51:28;;;;;;;27.88;18.63;;;;;;;;;;5132100;27;20019;-78
2022/12/12 14:53:55;;;;;;;25.83;15.88;;;;;;;;;;5130607;27;20365;-78
2022/12/12 14:56:36;;;;;;;24.02;15.05;;;;;;;;;;5095320;27;20055;-78
2022/12/12 14:59:21;;;;;;;19.45;11.90;;;;;;;;;;5104826;28;20175;-79
2022/12/12 15:01:50;;;;;;;18.02;13.35;;;;;;;;;;5126078;27;20908;-78
2022/12/12 15:04:35;;;;;;;39.90;30.33;;;;;;;;;;5126483;27;20118;-77
2022/12/12 15:07:01;;;;;;;;;;;;;;;;;;5124678;27;20469;-78
2022/12/12 15:09:37;;;;;;;15.32;9.95;;;;;;;;;;5128745;27;19907;-78